• Join FlightAware (Why Join?)
  • Login
  • US Flag 
06:25PM EDT


 

Airport Tracker/Info


-or-


 

Live Flight TrackerFlight Track Log ✈ N525MB ✈ 18-Jul-2013 ✈ KCLT - KOSU

Flight Track Log - Related Links

Times and Time Zones

All times are in EDT time to prevent confusion due to time zone crossing. See the N525MB flight status page for this flight to view local times or setup timezone preferences in your user account.

Time Position Orientation Groundspeed Altitude Reporting Facility
EDT Latitude Longitude Course Direction KTS MPH feet Rate Location/Type
08:42PM 35.1869 -80.9511 198° South 211 243 1,500  Level Atlanta Center
08:43PM 35.1250 -80.9761 198° South 238 274 3,600 2,100 Climbing Atlanta Center
08:44PM 35.1042 -81.0558 252° West 240 276 6,100 1,980 Climbing Atlanta Center
08:45PM 35.1125 -81.1417 277° West 264 304 7,900 1,980 Climbing Atlanta Center
08:47PM 35.1758 -81.1828 332° Northwest 278 320 10,500 2,100 Climbing Atlanta Center
08:48PM 35.2422 -81.1575 17° North 262 302 12,500 2,100 Climbing Atlanta Center
08:49PM 35.3083 -81.1322 17° North 248 285 14,700 1,860 Climbing Atlanta Center
08:50PM 35.3767 -81.1094 15° North 243 280 16,300 1,380 Climbing Atlanta Center
08:51PM 35.4417 -81.1250 349° North 243 280 17,500 1,320 Climbing Atlanta Center
08:52PM 35.5156 -81.1581 340° North 265 305 19,000 1,680 Climbing Atlanta Center
08:53PM 35.5975 -81.1886 343° North 271 312 20,900 1,500 Climbing Atlanta Center
08:54PM 35.6692 -81.2142 344° North 271 312 22,000 1,080 Climbing Atlanta Center
08:55PM 35.7553 -81.2494 342° North 304 350 23,100 1,140 Climbing Atlanta Center
08:56PM 35.8333 -81.2828 341° North 304 350 24,300 1,260 Climbing Atlanta Center
08:57PM 35.9092 -81.3133 342° North 291 335 25,700 1,200 Climbing Atlanta Center
08:58PM 35.9786 -81.3419 342° North 291 335 26,700 960 Climbing Atlanta Center
08:59PM 36.0544 -81.3728 342° North 291 335 27,700 600 Climbing Atlanta Center
09:00PM 36.1342 -81.4011 344° North 291 335 28,000 120 Climbing Atlanta Center
09:01PM 36.2225 -81.4392 341° North 313 360 28,000  Level Atlanta Center
09:02PM 36.3108 -81.4725 343° North 327 376 28,000  Level Atlanta Center
09:03PM 36.4014 -81.5108 341° North 335 386 28,000  Level Atlanta Center
09:04PM 36.4939 -81.5467 343° North 340 391 28,000  Level Atlanta Center
09:05PM 36.5906 -81.5878 341° North 340 391 28,000  Level Atlanta Center
09:06PM 36.6789 -81.6239 342° North 340 391 28,000  Level Atlanta Center
09:08PM 36.8750 -81.7019 342° North 343 395 28,000  Level Indianapolis Center
09:09PM 36.9661 -81.7383 342° North 344 396 28,000  Level Indianapolis Center
09:10PM 37.0569 -81.7758 342° North 343 395 28,000  Level Indianapolis Center
09:11PM 37.1481 -81.8139 342° North 344 396 28,000  Level Indianapolis Center
09:12PM 37.2375 -81.8508 342° North 340 391 28,000  Level Indianapolis Center
09:13PM 37.3444 -81.8956 342° North 345 397 28,000  Level Indianapolis Center
09:14PM 37.4325 -81.9319 342° North 336 387 28,000  Level Indianapolis Center
09:15PM 37.5264 -81.9703 342° North 347 399 28,000  Level Indianapolis Center
09:16PM 37.6161 -82.0075 342° North 342 394 28,000  Level Indianapolis Center
09:17PM 37.7058 -82.0447 342° North 340 391 28,000  Level Indianapolis Center
09:18PM 37.7961 -82.0839 341° North 343 395 28,000  Level Indianapolis Center
09:19PM 37.8994 -82.1267 342° North 342 394 28,000  Level Indianapolis Center
09:20PM 37.9917 -82.1656 342° North 342 394 28,000  Level Indianapolis Center
09:21PM 38.0819 -82.2039 342° North 342 394 28,000  Level Indianapolis Center
09:22PM 38.1717 -82.2417 342° North 344 396 28,000 -480 Level Indianapolis Center
09:24PM 38.3575 -82.3219 341° North 359 413 26,700 -720 Descending Indianapolis Center
09:25PM 38.4553 -82.3625 342° North 365 420 25,900 -840 Descending Indianapolis Center
09:26PM 38.5522 -82.4044 341° North 366 421 25,000 -840 Descending Indianapolis Center
09:27PM 38.6478 -82.4447 342° North 362 417 24,200 -540 Descending Indianapolis Center
09:28PM 38.7436 -82.4869 341° North 361 415 24,000 -540 Descending Indianapolis Center
09:29PM 38.8567 -82.5361 341° North 357 411 23,100 -600 Descending Indianapolis Center
09:30PM 38.9497 -82.5775 341° North 354 407 22,800 -300 Descending Indianapolis Center
09:31PM 39.0436 -82.6183 341° North 355 409 22,500 -900 Descending Indianapolis Center
09:32PM 39.1369 -82.6572 342° North 350 403 21,000 -1,860 Descending Indianapolis Center
09:33PM 39.2331 -82.6997 341° North 338 389 18,800 -2,040 Descending Indianapolis Center
09:34PM 39.3192 -82.7372 341° North 326 375 16,900 -1,920 Descending Indianapolis Center
09:35PM 39.4061 -82.7764 341° North 328 377 14,900 -1,980 Descending Indianapolis Center
09:36PM 39.4961 -82.7908 353° North 324 373 12,900 -1,920 Descending Indianapolis Center
09:37PM 39.5819 -82.8008 355° North 311 358 11,000 -1,740 Descending Indianapolis Center
09:39PM 39.6669 -82.8114 355° North 305 351 9,400 -1,560 Descending Indianapolis Center
09:40PM 39.7503 -82.8203 355° North 299 344 7,900 -1,320 Descending Indianapolis Center
09:41PM 39.8325 -82.8297 355° North 295 339 6,800 -1,080 Descending Indianapolis Center
09:42PM 39.9089 -82.8428 353° North 278 320 5,700 -1,380 Descending Indianapolis Center
09:43PM 39.9906 -82.8769 342° North 264 304 4,000 -1,620 Descending Indianapolis Center
09:44PM 40.0550 -82.9081 340° North 255 293 2,500 -900 Descending Indianapolis Center
09:45PM 40.0786 -82.9650 298° West 203 234 2,200 -480 Descending Indianapolis Center
09:46PM 40.0803 -83.0225 272° West 173 199 1,600 -600 Descending Indianapolis Center
09:47PM 40.0775 -83.0594 264° West 153 176 1,000 -600 Descending Indianapolis Center
09:49PM 40.0798 -83.0732 283° West  Level Estimated